WetterOnline ( https://www.wetteronline.de )

Wetter aktuell Sondershausen

Aktuelles Wetter: Artern (166m)

6-stündlich | Neueste Meldungen
Ortszeit Temperatur Wetter
Mi, 05.10. 20:00 16.9° C fast wolkenlos
Mi, 05.10. 14:00 17.0° C fast wolkenlos
Mi, 05.10. 8:00 7.4° C bedeckt
Mi, 05.10. 2:00 10.1° C leicht bewölkt
Di, 04.10. 20:00 13.6° C wolkig
Di, 04.10. 14:00 16.9° C wolkenlos
Di, 04.10. 8:00 8.2° C bedeckt
Di, 04.10. 2:00 9.6° C wolkenlos
Ortszeit Temperatur Wetter
Mi, 05.10. 21:00 16.3° C leicht bewölkt
Mi, 05.10. 20:50 16.3° C leicht bewölkt
Mi, 05.10. 20:40 16.5° C bewölkt
Mi, 05.10. 20:30 16.5° C leicht bewölkt
Mi, 05.10. 20:20 16.5° C leicht bewölkt
Mi, 05.10. 20:10 16.3° C wolkig
Mi, 05.10. 20:00 16.9° C fast wolkenlos
Mi, 05.10. 19:30 17.5° C wolkig
Mi, 05.10. 19:00 18.0° C leicht bewölkt
Mi, 05.10. 18:30 18.5° C wolkenlos
Mi, 05.10. 18:00 19.2° C wolkenlos
Ortszeit Relative Feuchte Sichtweite
Mi, 05.10. 20:00 70% >70 km
Mi, 05.10. 14:00 63% 55 km
Mi, 05.10. 8:00 96% 35 km
Mi, 05.10. 2:00 83% 65 km
Di, 04.10. 20:00 67% 65 km
Di, 04.10. 14:00 59% 60 km
Di, 04.10. 8:00 93% 35 km
Di, 04.10. 2:00 88% 50 km
Ortszeit Relative Feuchte Sichtweite
Mi, 05.10. 21:00 73% >70 km
Mi, 05.10. 20:50 73% -
Mi, 05.10. 20:40 73% -
Mi, 05.10. 20:30 71% >70 km
Mi, 05.10. 20:20 71% -
Mi, 05.10. 20:10 73% -
Mi, 05.10. 20:00 70% >70 km
Mi, 05.10. 19:30 67% >70 km
Mi, 05.10. 19:00 64% >70 km
Mi, 05.10. 18:30 62% >70 km
Mi, 05.10. 18:00 57% >70 km
Ortszeit Niederschlagsmenge Niederschlagsart
Mi, 05.10. 20:00 0.0 l/m2 in 12 Std. -
Mi, 05.10. 14:00 0.0 l/m2 in 6 Std. -
Mi, 05.10. 8:00 0.0 l/m2 in 12 Std. -
Mi, 05.10. 2:00 0.0 l/m2 in 6 Std. -
Di, 04.10. 20:00 0.0 l/m2 in 12 Std. -
Di, 04.10. 14:00 0.0 l/m2 in 6 Std. -
Di, 04.10. 8:00 0.0 l/m2 in 12 Std. -
Di, 04.10. 2:00 0.0 l/m2 in 6 Std. -
Ortszeit Niederschlagsmenge Niederschlagsart
Mi, 05.10. 21:00 0.0 l/m2 in 1 Std. -
Mi, 05.10. 20:50 keine Meldung -
Mi, 05.10. 20:40 keine Meldung -
Mi, 05.10. 20:30 0.0 l/m2 in 1 Std. -
Mi, 05.10. 20:20 keine Meldung -
Mi, 05.10. 20:10 keine Meldung -
Mi, 05.10. 20:00 0.0 l/m2 in 1 Std. -
Mi, 05.10. 19:30 0.0 l/m2 in 1 Std. -
Mi, 05.10. 19:00 0.0 l/m2 in 1 Std. -
Mi, 05.10. 18:30 0.0 l/m2 in 1 Std. -
Mi, 05.10. 18:00 0.0 l/m2 in 1 Std. -
Ortszeit Stärke Spitze Richtung
km/h Bft. km/h Grad Sektor
Mi, 05.10. 20:00 4 1 50 250° W
Mi, 05.10. 14:00 26 4 54 250° W
Mi, 05.10. 8:00 7 2 18 180° S
Mi, 05.10. 2:00 11 2 25 230° SW
Di, 04.10. 20:00 11 2 29 190° S
Di, 04.10. 14:00 14 3 25 220° SW
Di, 04.10. 8:00 6 1 15 260° W
Di, 04.10. 2:00 6 1 24 250° W
Ortszeit Stärke Spitze Richtung
km/h Bft. km/h Grad Sektor
Mi, 05.10. 21:00 13 3 20 240° SW
Mi, 05.10. 20:50 13 3 - 240° SW
Mi, 05.10. 20:40 11 2 - 240° SW
Mi, 05.10. 20:30 7 2 14 240° SW
Mi, 05.10. 20:20 7 2 - 240° SW
Mi, 05.10. 20:10 6 1 - 230° SW
Mi, 05.10. 20:00 4 1 25 250° W
Mi, 05.10. 19:30 11 2 24 220° SW
Mi, 05.10. 19:00 11 2 29 210° SW
Mi, 05.10. 18:30 14 3 29 210° SW
Mi, 05.10. 18:00 17 3 35 220° SW
Ortszeit Untergrenze Bedeckung Gattung
total tief tief mittel hoch
Mi, 05.10. 20:00 10500 m 1/8 0/8 - - -
Mi, 05.10. 14:00 810 m 1/8 1/8 - - -
Mi, 05.10. 8:00 6300 m 8/8 8/8 - - -
Mi, 05.10. 2:00 8100 m 4/8 0/8 - - -
Di, 04.10. 20:00 10500 m 7/8 0/8 - - -
Di, 04.10. 14:00 - 0/8 0/8 - - -
Di, 04.10. 8:00 4200 m 8/8 8/8 - - -
Di, 04.10. 2:00 - 0/8 0/8 - - -
Ortszeit Bedeckungsgrad in Achtel und Wolkenuntergrenze
Mi, 05.10. 21:00 3(9000m) 4(10500m)
Mi, 05.10. 20:50 3(9000m) 4(10500m)
Mi, 05.10. 20:40 7
Mi, 05.10. 20:30 6(10500m) 6(10500m)
Mi, 05.10. 20:20 6(10500m) 6(10500m)
Mi, 05.10. 20:10 5
Mi, 05.10. 20:00 1(10500m)
Mi, 05.10. 19:30 7(9000m)
Mi, 05.10. 19:00 6(9000m) 6(10500m)
Mi, 05.10. 18:30 keine Wolken
Mi, 05.10. 18:00 keine Wolken
Ortszeit Luftdruck NN (hPa) Tendenz (hPa in 3 Std.)
Mi, 05.10. 20:00 1017 0,0
Mi, 05.10. 14:00 1018 - 0,4
Mi, 05.10. 8:00 1020 - 0,5
Mi, 05.10. 2:00 1020 - 1,1
Di, 04.10. 20:00 1021 + 0,1
Di, 04.10. 14:00 1022 - 1,0
Di, 04.10. 8:00 1023 - 0,5
Di, 04.10. 2:00 1025 - 0,2
Ortszeit Luftdruck NN (hPa) Tendenz (hPa in 3 Std.)
Mi, 05.10. 21:00 1017 + 0,7
Mi, 05.10. 20:50 1017 keine Meldung
Mi, 05.10. 20:40 1017 keine Meldung
Mi, 05.10. 20:30 1017 + 0,2
Mi, 05.10. 20:20 1017 keine Meldung
Mi, 05.10. 20:10 1017 keine Meldung
Mi, 05.10. 20:00 1017 0,0
Mi, 05.10. 19:30 1017 - 0,5
Mi, 05.10. 19:00 1016 - 0,9
Mi, 05.10. 18:30 1016 - 1,4
Mi, 05.10. 18:00 1016 - 1,3
Ortszeit Schneehöhe (cm)
Mi, 05.10. 20:00 0
Mi, 05.10. 14:00 0
Mi, 05.10. 8:00 0
Mi, 05.10. 2:00 0
Di, 04.10. 20:00 0
Di, 04.10. 14:00 0
Di, 04.10. 8:00 0
Di, 04.10. 2:00 0
Ortszeit Schneehöhe (cm)
Mi, 05.10. 21:00 0
Mi, 05.10. 20:50 0
Mi, 05.10. 20:40 0
Mi, 05.10. 20:30 0
Mi, 05.10. 20:20 0
Mi, 05.10. 20:10 0
Mi, 05.10. 20:00 0
Mi, 05.10. 19:30 0
Mi, 05.10. 19:00 0
Mi, 05.10. 18:30 0
Mi, 05.10. 18:00 0
Link zu dieser Seite / Seite empfehlen

Das Wetter in ...